createdAt,value
2018-08-07T00:01:36.688Z,16.10
2018-08-07T00:04:04.864Z,17.30
2018-08-07T00:06:32.947Z,14.40
2018-08-07T00:09:01.037Z,17.20
2018-08-07T00:11:29.140Z,16.70
2018-08-07T00:13:57.244Z,17.40
2018-08-07T00:16:25.341Z,17.00
2018-08-07T00:18:53.427Z,17.90
2018-08-07T00:21:21.536Z,18.10
2018-08-07T00:23:49.608Z,17.80
2018-08-07T00:26:17.690Z,18.60
2018-08-07T00:28:45.828Z,18.40
2018-08-07T00:31:13.912Z,18.60
2018-08-07T00:33:42.012Z,18.40
2018-08-07T00:36:10.104Z,19.10
2018-08-07T00:38:38.234Z,19.60
2018-08-07T00:41:06.426Z,20.50
2018-08-07T00:43:34.589Z,20.70
2018-08-07T00:46:02.698Z,21.70
2018-08-07T00:48:30.806Z,21.50
2018-08-07T00:50:58.921Z,21.80
2018-08-07T00:53:27.066Z,22.20
2018-08-07T00:55:55.254Z,22.80
2018-08-07T00:58:23.401Z,21.70
2018-08-07T01:00:51.534Z,21.60
2018-08-07T01:03:19.624Z,21.80
2018-08-07T01:05:47.751Z,21.60
2018-08-07T01:08:15.807Z,20.40
2018-08-07T01:10:43.899Z,20.50
2018-08-07T01:13:12.036Z,20.80
2018-08-07T01:15:40.160Z,20.90
2018-08-07T01:18:08.252Z,21.20
2018-08-07T01:20:36.358Z,21.70
2018-08-07T01:23:04.444Z,22.30
2018-08-07T01:25:32.544Z,22.60
2018-08-07T01:28:00.656Z,23.00
2018-08-07T01:30:29.722Z,22.50
2018-08-07T01:32:57.872Z,23.70
2018-08-07T01:35:27.114Z,24.20
2018-08-07T01:37:55.207Z,24.30
2018-08-07T01:40:23.340Z,25.50
2018-08-07T01:42:51.450Z,24.40
2018-08-07T01:45:19.560Z,25.00
2018-08-07T01:47:47.649Z,26.10
2018-08-07T01:50:16.356Z,26.20
2018-08-07T01:52:44.435Z,27.00
2018-08-07T01:55:18.618Z,27.80
2018-08-07T01:57:46.709Z,28.20
2018-08-07T02:00:14.751Z,28.40
2018-08-07T02:02:42.858Z,29.00
2018-08-07T02:05:12.460Z,28.80
2018-08-07T02:07:41.256Z,28.40
2018-08-07T02:10:12.406Z,26.40
2018-08-07T02:12:40.572Z,27.00
2018-08-07T02:15:09.814Z,27.30
2018-08-07T02:17:37.923Z,26.90
2018-08-07T02:20:07.979Z,26.60
2018-08-07T02:22:36.085Z,26.30
2018-08-07T02:25:05.544Z,25.00
2018-08-07T02:27:33.681Z,26.50
2018-08-07T02:30:01.768Z,26.40
2018-08-07T02:32:29.845Z,27.00
2018-08-07T02:34:58.062Z,26.20
2018-08-07T02:37:26.179Z,22.90
2018-08-07T02:39:54.220Z,24.80
2018-08-07T02:42:22.338Z,18.80
2018-08-07T02:44:50.449Z,21.60
2018-08-07T02:47:18.523Z,17.50
2018-08-07T02:49:46.657Z,21.80
2018-08-07T02:52:14.772Z,14.70
2018-08-07T02:54:42.836Z,18.00
2018-08-07T02:57:10.923Z,19.80
2018-08-07T02:59:39.085Z,14.20
2018-08-07T03:02:07.628Z,16.50
2018-08-07T03:04:35.793Z,13.00
2018-08-07T03:07:04.117Z,11.60
2018-08-07T03:09:32.254Z,11.30
2018-08-07T03:12:00.372Z,12.70
2018-08-07T03:14:28.458Z,13.40
2018-08-07T03:16:56.584Z,11.60
2018-08-07T03:19:25.142Z,14.10
2018-08-07T03:21:53.256Z,14.00
2018-08-07T03:24:21.319Z,13.40
2018-08-07T03:26:49.593Z,14.40
2018-08-07T03:29:17.785Z,13.00
2018-08-07T03:31:45.929Z,15.10
2018-08-07T03:34:14.076Z,14.00
2018-08-07T03:36:42.196Z,15.60
2018-08-07T03:41:40.639Z,12.50
2018-08-07T03:44:09.112Z,11.90
2018-08-07T03:46:37.223Z,11.60
2018-08-07T03:49:05.531Z,12.40
2018-08-07T03:51:33.687Z,12.10
2018-08-07T03:54:01.750Z,11.70
2018-08-07T03:56:29.940Z,11.90
2018-08-07T03:58:58.377Z,11.70
2018-08-07T04:01:26.703Z,11.00
2018-08-07T04:03:55.380Z,11.10
2018-08-07T04:06:23.511Z,11.30
2018-08-07T04:08:51.665Z,11.10
2018-08-07T04:11:19.910Z,11.00
2018-08-07T04:13:48.036Z,11.20
2018-08-07T04:16:16.136Z,12.10
2018-08-07T04:18:44.257Z,11.20
2018-08-07T04:21:12.412Z,11.80
2018-08-07T04:23:40.512Z,11.50
2018-08-07T04:26:08.708Z,11.20
2018-08-07T04:28:36.791Z,12.70
2018-08-07T04:33:33.005Z,11.10
2018-08-07T04:36:01.096Z,11.10
2018-08-07T04:38:29.184Z,10.50
2018-08-07T04:40:57.251Z,10.50
2018-08-07T04:43:25.344Z,11.50
2018-08-07T04:45:53.500Z,10.90
2018-08-07T04:50:49.422Z,10.50
2018-08-07T04:53:17.580Z,9.80
2018-08-07T04:55:45.732Z,11.30
2018-08-07T04:58:13.939Z,9.90
2018-08-07T05:00:42.072Z,10.80
2018-08-07T05:03:10.472Z,11.00
2018-08-07T05:05:38.773Z,12.00
2018-08-07T05:08:06.996Z,10.00
2018-08-07T05:10:35.259Z,9.50
2018-08-07T05:13:03.275Z,9.10
2018-08-07T05:15:31.357Z,8.50
2018-08-07T05:17:59.471Z,9.00
2018-08-07T05:20:27.685Z,8.60
2018-08-07T05:22:55.862Z,7.20
2018-08-07T05:25:24.053Z,7.70
2018-08-07T05:27:52.164Z,6.70
2018-08-07T05:30:20.318Z,7.00
2018-08-07T05:32:48.462Z,6.20
2018-08-07T05:35:16.644Z,6.20
2018-08-07T05:37:44.818Z,6.20
2018-08-07T05:40:12.933Z,5.40
2018-08-07T05:42:41.426Z,5.70
2018-08-07T05:45:11.544Z,5.20
2018-08-07T05:47:39.783Z,4.60
2018-08-07T05:50:11.366Z,4.40
2018-08-07T05:52:39.457Z,4.40
2018-08-07T05:57:35.804Z,3.40
2018-08-07T06:00:07.559Z,3.70
2018-08-07T06:02:35.718Z,3.50
2018-08-07T06:05:03.828Z,3.30
2018-08-07T06:07:31.895Z,2.60
2018-08-07T06:10:00.077Z,2.20
2018-08-07T06:12:28.164Z,2.30
2018-08-07T06:14:56.306Z,2.10
2018-08-07T06:17:24.489Z,1.70
2018-08-07T06:19:52.597Z,2.00
2018-08-07T06:24:48.648Z,1.50
2018-08-07T06:29:44.667Z,1.00
2018-08-07T06:32:12.823Z,1.00
2018-08-07T06:34:40.890Z,1.10
2018-08-07T06:37:09.028Z,1.00
2018-08-07T06:39:37.139Z,1.00
2018-08-07T06:42:05.428Z,1.00
2018-08-07T06:44:33.575Z,1.00
2018-08-07T06:47:01.647Z,1.00
2018-08-07T06:49:29.827Z,1.00
2018-08-07T06:51:57.968Z,1.00
2018-08-07T06:54:26.068Z,1.00
2018-08-07T06:56:54.209Z,1.00
2018-08-07T06:59:22.350Z,1.00
2018-08-07T07:01:50.521Z,1.00
2018-08-07T07:04:18.622Z,1.00
2018-08-07T07:06:46.718Z,1.00
2018-08-07T07:09:14.845Z,1.00
2018-08-07T07:11:43.021Z,1.00
2018-08-07T07:14:11.125Z,1.00
2018-08-07T07:16:39.277Z,1.00
2018-08-07T07:19:07.465Z,1.00
2018-08-07T07:21:35.605Z,1.00
2018-08-07T07:24:03.789Z,1.00
2018-08-07T07:26:31.923Z,1.00
2018-08-07T07:29:00.028Z,1.00
2018-08-07T07:31:28.146Z,1.00
2018-08-07T07:33:56.318Z,1.00
2018-08-07T07:36:24.482Z,1.00
2018-08-07T07:38:53.588Z,1.00
2018-08-07T07:41:21.693Z,1.00
2018-08-07T07:43:49.828Z,1.00
2018-08-07T07:46:18.011Z,1.00
2018-08-07T07:48:46.210Z,1.00
2018-08-07T07:51:14.505Z,1.00
2018-08-07T07:53:42.708Z,1.00
2018-08-07T07:56:10.837Z,1.00
2018-08-07T07:58:38.985Z,1.00
2018-08-07T08:01:07.175Z,1.00
2018-08-07T08:03:35.513Z,1.00
2018-08-07T08:06:03.720Z,1.00
2018-08-07T08:08:32.781Z,1.00
2018-08-07T08:11:01.327Z,1.00
2018-08-07T08:13:29.496Z,1.00
2018-08-07T08:15:57.591Z,1.00
2018-08-07T08:18:25.719Z,1.00
2018-08-07T08:20:53.890Z,1.00
2018-08-07T08:23:21.984Z,1.00
2018-08-07T08:25:50.098Z,1.00
2018-08-07T08:28:18.160Z,1.00
2018-08-07T08:30:46.244Z,1.00
2018-08-07T08:33:14.344Z,1.00
2018-08-07T08:35:42.387Z,1.00
2018-08-07T08:38:10.489Z,1.00
2018-08-07T08:40:38.656Z,1.00
2018-08-07T08:43:06.810Z,1.00
2018-08-07T08:45:34.946Z,1.00
2018-08-07T08:48:03.122Z,1.00
2018-08-07T08:50:31.187Z,1.00
2018-08-07T08:52:59.390Z,1.00
2018-08-07T08:55:27.637Z,1.00
2018-08-07T08:57:55.688Z,1.00
2018-08-07T09:00:25.921Z,1.00
2018-08-07T09:02:55.057Z,1.00
2018-08-07T09:05:23.260Z,1.00
2018-08-07T09:07:51.360Z,1.00
2018-08-07T09:10:29.322Z,1.00
2018-08-07T09:12:58.229Z,1.00
2018-08-07T09:15:26.396Z,1.00
2018-08-07T09:17:54.524Z,1.00
2018-08-07T09:20:24.615Z,1.00
2018-08-07T09:22:52.756Z,1.00
2018-08-07T09:25:21.821Z,1.00
2018-08-07T09:27:50.027Z,1.00
2018-08-07T09:30:22.150Z,1.00
2018-08-07T09:32:51.092Z,1.00
2018-08-07T09:35:20.105Z,1.00
2018-08-07T09:37:48.292Z,1.00
2018-08-07T09:40:17.637Z,1.00
2018-08-07T09:42:47.284Z,1.00
2018-08-07T09:45:18.061Z,1.00
2018-08-07T09:47:46.678Z,1.00
2018-08-07T09:50:16.280Z,1.00
2018-08-07T09:52:44.795Z,1.00
2018-08-07T09:55:12.915Z,1.00
2018-08-07T09:57:41.242Z,1.00
2018-08-07T10:00:19.919Z,1.00
2018-08-07T10:02:50.616Z,1.00
2018-08-07T10:05:19.950Z,1.00
2018-08-07T10:07:48.540Z,1.00
2018-08-07T10:10:17.491Z,1.00
2018-08-07T10:12:46.059Z,1.00
2018-08-07T10:15:14.722Z,1.00
2018-08-07T10:17:42.880Z,1.00
2018-08-07T10:20:11.353Z,1.00
2018-08-07T10:22:40.288Z,1.00
2018-08-07T10:25:11.653Z,1.00
2018-08-07T10:27:41.418Z,1.00
2018-08-07T10:30:12.608Z,1.00
2018-08-07T10:32:41.312Z,1.00
2018-08-07T10:35:10.992Z,1.00
2018-08-07T10:37:39.147Z,1.00
2018-08-07T10:40:09.464Z,1.00
2018-08-07T10:42:37.596Z,1.00
2018-08-07T10:45:07.166Z,1.00
2018-08-07T10:47:35.231Z,1.00
2018-08-07T10:50:04.540Z,1.00
2018-08-07T10:52:32.617Z,1.00
2018-08-07T10:55:00.746Z,1.00
2018-08-07T10:57:28.860Z,1.00
2018-08-07T10:59:56.986Z,1.00
2018-08-07T11:02:25.119Z,1.00
2018-08-07T11:04:53.155Z,1.00
2018-08-07T11:07:21.334Z,1.00
2018-08-07T11:09:49.552Z,1.00
2018-08-07T11:12:17.684Z,1.00
2018-08-07T11:14:45.801Z,1.00
2018-08-07T11:17:13.928Z,1.00
2018-08-07T11:19:41.985Z,1.00
2018-08-07T11:22:10.416Z,1.00
2018-08-07T11:24:38.566Z,1.00
2018-08-07T11:27:06.675Z,1.00
2018-08-07T11:29:34.790Z,1.00
2018-08-07T11:32:02.926Z,1.00
2018-08-07T11:34:31.076Z,1.00
2018-08-07T11:36:59.241Z,1.00
2018-08-07T11:39:27.315Z,1.00
2018-08-07T11:41:55.453Z,1.00
2018-08-07T11:44:23.562Z,1.00
2018-08-07T11:46:51.639Z,1.00
2018-08-07T11:49:19.787Z,1.00
2018-08-07T11:51:47.950Z,1.00
2018-08-07T11:54:16.049Z,1.00
2018-08-07T11:56:44.194Z,1.00
2018-08-07T11:59:15.356Z,1.00
2018-08-07T12:01:43.499Z,1.00
2018-08-07T12:04:11.607Z,1.00
2018-08-07T12:06:39.689Z,1.00
2018-08-07T12:09:09.295Z,1.00
2018-08-07T12:11:37.588Z,1.00
2018-08-07T12:14:05.869Z,1.00
2018-08-07T12:16:34.007Z,1.00
2018-08-07T12:19:02.274Z,1.00
2018-08-07T12:21:30.710Z,1.00
2018-08-07T12:23:58.792Z,1.00
2018-08-07T12:26:27.000Z,1.00
2018-08-07T12:28:55.108Z,1.00
2018-08-07T12:31:23.228Z,1.00
2018-08-07T12:33:51.352Z,1.00
2018-08-07T12:36:19.435Z,1.00
2018-08-07T12:38:47.548Z,1.00
2018-08-07T12:41:15.732Z,1.00
2018-08-07T12:43:43.837Z,1.00
2018-08-07T12:46:11.937Z,1.00
2018-08-07T12:48:40.056Z,1.00
2018-08-07T12:51:08.206Z,1.00
2018-08-07T12:53:36.289Z,1.00
2018-08-07T12:56:04.402Z,1.00
2018-08-07T12:58:32.529Z,1.00
2018-08-07T13:01:00.624Z,1.00
2018-08-07T13:03:28.835Z,1.00
2018-08-07T13:05:56.917Z,1.00
2018-08-07T13:10:52.858Z,1.00
2018-08-07T13:15:48.934Z,1.00
2018-08-07T13:18:18.721Z,1.00
2018-08-07T13:20:46.863Z,1.00
2018-08-07T13:23:15.046Z,1.00
2018-08-07T13:25:43.210Z,1.00
2018-08-07T13:28:11.317Z,1.00
2018-08-07T13:30:40.018Z,1.00
2018-08-07T13:33:08.132Z,1.00
2018-08-07T13:35:36.230Z,1.00
2018-08-07T13:38:04.311Z,1.00
2018-08-07T13:40:32.453Z,1.00
2018-08-07T13:43:00.542Z,1.00
2018-08-07T13:45:28.701Z,1.00
2018-08-07T13:47:56.764Z,1.00
2018-08-07T13:50:25.332Z,1.00
2018-08-07T13:52:53.652Z,1.00
2018-08-07T13:55:22.917Z,1.00
2018-08-07T13:57:51.102Z,1.00
2018-08-07T14:00:21.207Z,1.00
2018-08-07T14:02:49.967Z,1.00
2018-08-07T14:05:19.076Z,1.00
2018-08-07T14:07:48.115Z,1.00
2018-08-07T14:10:17.046Z,1.00
2018-08-07T14:12:45.200Z,1.00
2018-08-07T14:15:14.901Z,1.00
2018-08-07T14:17:43.813Z,1.00
2018-08-07T14:20:12.971Z,1.00
2018-08-07T14:22:41.094Z,1.00
2018-08-07T14:25:26.812Z,1.00
2018-08-07T14:27:55.035Z,1.00
2018-08-07T14:30:27.316Z,1.00
2018-08-07T14:32:55.387Z,1.00
2018-08-07T14:35:24.232Z,1.00
2018-08-07T14:37:52.317Z,1.00
2018-08-07T14:40:22.825Z,1.00
2018-08-07T14:42:51.359Z,1.00
2018-08-07T14:45:20.869Z,1.00
2018-08-07T14:47:49.893Z,1.00
2018-08-07T14:50:19.555Z,1.00
2018-08-07T14:52:47.654Z,1.00
2018-08-07T14:57:43.897Z,1.00
2018-08-07T15:00:14.334Z,1.00
2018-08-07T15:02:42.465Z,1.00
2018-08-07T15:05:10.568Z,1.00
2018-08-07T15:07:38.811Z,1.00
2018-08-07T15:10:10.451Z,1.00
2018-08-07T15:12:39.646Z,1.00
2018-08-07T15:15:11.737Z,1.00
2018-08-07T15:17:39.917Z,1.00
2018-08-07T15:20:09.584Z,1.00
2018-08-07T15:22:38.132Z,1.00
2018-08-07T15:25:08.777Z,1.00
2018-08-07T15:27:36.974Z,1.00
2018-08-07T15:30:06.454Z,1.00
2018-08-07T15:32:34.693Z,1.00
2018-08-07T15:35:02.858Z,1.00
2018-08-07T15:37:30.984Z,1.00
2018-08-07T15:39:59.104Z,1.00
2018-08-07T15:42:27.158Z,1.00
2018-08-07T15:44:55.337Z,1.00
2018-08-07T15:47:23.523Z,1.00
2018-08-07T15:49:51.668Z,1.00
2018-08-07T15:52:20.225Z,1.00
2018-08-07T15:54:48.395Z,1.00
2018-08-07T15:57:16.531Z,1.00
2018-08-07T15:59:44.686Z,1.00
2018-08-07T16:02:12.776Z,1.00
2018-08-07T16:04:40.898Z,1.00
2018-08-07T16:07:08.992Z,1.00
2018-08-07T16:09:37.147Z,1.00
2018-08-07T16:12:05.941Z,1.00
2018-08-07T16:14:34.078Z,1.00
2018-08-07T16:17:02.253Z,1.00
2018-08-07T16:19:30.402Z,1.00
2018-08-07T16:21:58.489Z,1.00
2018-08-07T16:24:26.537Z,1.00
2018-08-07T16:26:54.645Z,1.00
2018-08-07T16:29:22.728Z,1.00
2018-08-07T16:31:50.965Z,1.00
2018-08-07T16:34:19.144Z,1.00
2018-08-07T16:36:47.212Z,1.00
2018-08-07T16:39:15.418Z,1.00
2018-08-07T16:41:43.609Z,1.00
2018-08-07T16:44:11.692Z,1.00
2018-08-07T16:46:39.799Z,1.00
2018-08-07T16:49:07.910Z,1.00
2018-08-07T16:54:04.151Z,1.00
2018-08-07T16:56:32.366Z,1.00
2018-08-07T16:59:00.479Z,1.00
2018-08-07T17:01:28.539Z,1.00
2018-08-07T17:03:56.665Z,1.00
2018-08-07T17:06:24.824Z,1.00
2018-08-07T17:08:52.932Z,1.00
2018-08-07T17:11:21.112Z,1.00
2018-08-07T17:13:49.109Z,1.00
2018-08-07T17:16:17.206Z,1.00
2018-08-07T17:18:45.427Z,1.00
2018-08-07T17:21:13.533Z,1.00
2018-08-07T17:23:41.635Z,1.00
2018-08-07T17:26:09.720Z,1.00
2018-08-07T17:28:37.886Z,1.00
2018-08-07T17:31:06.156Z,1.00
2018-08-07T17:33:34.255Z,1.00
2018-08-07T17:36:02.424Z,1.00
2018-08-07T17:38:30.484Z,1.00
2018-08-07T17:40:58.527Z,1.00
2018-08-07T17:43:26.605Z,1.00
2018-08-07T17:45:54.691Z,1.00
2018-08-07T17:48:22.777Z,1.00
2018-08-07T17:50:50.826Z,1.00
2018-08-07T17:53:18.967Z,1.00
2018-08-07T17:55:47.052Z,1.00
2018-08-07T17:58:15.111Z,1.00
2018-08-07T18:00:43.253Z,1.00
2018-08-07T18:03:11.315Z,1.00
2018-08-07T18:05:39.426Z,1.00
2018-08-07T18:08:07.593Z,1.00
2018-08-07T18:10:35.680Z,1.00
2018-08-07T18:13:03.739Z,1.00
2018-08-07T18:15:31.824Z,1.00
2018-08-07T18:17:59.905Z,1.00
2018-08-07T18:20:28.252Z,1.00
2018-08-07T18:22:56.362Z,1.00
2018-08-07T18:25:24.452Z,1.00
2018-08-07T18:27:52.525Z,1.00
2018-08-07T18:30:23.187Z,1.00
2018-08-07T18:32:51.392Z,1.00
2018-08-07T18:35:21.796Z,1.00
2018-08-07T18:37:50.135Z,1.00
2018-08-07T18:40:18.238Z,1.00
2018-08-07T18:42:46.376Z,1.00
2018-08-07T18:45:14.856Z,1.00
2018-08-07T18:47:43.734Z,1.00
2018-08-07T18:50:13.279Z,1.00
2018-08-07T18:52:41.315Z,1.00
2018-08-07T18:55:12.168Z,1.00
2018-08-07T18:57:41.022Z,1.00
2018-08-07T19:00:11.894Z,1.00
2018-08-07T19:02:40.352Z,1.00
2018-08-07T19:05:09.538Z,1.10
2018-08-07T19:07:38.422Z,1.00
2018-08-07T19:10:06.780Z,1.00
2018-08-07T19:12:34.811Z,1.50
2018-08-07T19:15:02.942Z,1.20
2018-08-07T19:17:31.031Z,1.00
2018-08-07T19:20:00.166Z,1.70
2018-08-07T19:22:28.410Z,1.50
2018-08-07T19:24:56.720Z,1.20
2018-08-07T19:27:25.096Z,1.60
2018-08-07T19:29:53.311Z,2.30
2018-08-07T19:32:21.512Z,2.10
2018-08-07T19:34:49.709Z,2.20
2018-08-07T19:37:17.929Z,2.70
2018-08-07T19:39:46.069Z,2.80
2018-08-07T19:42:14.205Z,3.40
2018-08-07T19:44:42.259Z,3.00
2018-08-07T19:47:10.479Z,3.20
2018-08-07T19:49:38.592Z,4.60
2018-08-07T19:52:06.950Z,4.10
2018-08-07T19:54:35.125Z,3.80
2018-08-07T19:57:03.187Z,3.80
2018-08-07T19:59:31.293Z,4.10
2018-08-07T20:01:59.500Z,4.70
2018-08-07T20:04:27.636Z,4.70
2018-08-07T20:06:55.742Z,6.10
2018-08-07T20:09:23.975Z,5.30
2018-08-07T20:11:52.140Z,5.80
2018-08-07T20:14:20.225Z,5.70
2018-08-07T20:16:48.407Z,6.20
2018-08-07T20:19:16.628Z,6.30
2018-08-07T20:21:44.745Z,6.60
2018-08-07T20:24:12.875Z,6.90
2018-08-07T20:26:40.977Z,7.40
2018-08-07T20:29:09.067Z,7.60
2018-08-07T20:31:37.269Z,7.80
2018-08-07T20:34:05.454Z,7.60
2018-08-07T20:36:33.617Z,7.00
2018-08-07T20:39:01.672Z,7.70
2018-08-07T20:41:29.830Z,8.10
2018-08-07T20:43:57.995Z,7.70
2018-08-07T20:46:26.297Z,7.60
2018-08-07T20:48:54.504Z,7.10
2018-08-07T20:51:22.689Z,7.30
2018-08-07T20:53:50.830Z,5.90
2018-08-07T20:56:18.953Z,6.70
2018-08-07T20:58:47.068Z,7.50
2018-08-07T21:01:15.230Z,7.70
2018-08-07T21:04:46.485Z,7.90
2018-08-07T21:07:14.682Z,8.20
2018-08-07T21:09:42.731Z,7.60
2018-08-07T21:12:10.951Z,7.40
2018-08-07T21:14:39.038Z,7.90
2018-08-07T21:17:07.124Z,7.60
2018-08-07T21:19:35.244Z,7.70
2018-08-07T21:22:03.328Z,8.10
2018-08-07T21:24:31.400Z,7.80
2018-08-07T21:26:59.517Z,8.40
2018-08-07T21:29:27.574Z,7.90
2018-08-07T21:31:55.627Z,8.00
2018-08-07T21:34:23.740Z,8.20
2018-08-07T21:36:51.805Z,8.10
2018-08-07T21:39:19.899Z,8.10
2018-08-07T21:41:48.045Z,8.50
2018-08-07T21:44:16.136Z,8.50
2018-08-07T21:46:44.285Z,8.70
2018-08-07T21:49:12.392Z,8.80
2018-08-07T21:51:40.449Z,8.80
2018-08-07T21:54:08.528Z,8.40
2018-08-07T21:56:36.636Z,8.90
2018-08-07T21:59:07.828Z,9.10
2018-08-07T22:01:35.913Z,9.30
2018-08-07T22:04:03.984Z,9.00
2018-08-07T22:07:13.738Z,9.70
2018-08-07T22:09:41.800Z,10.10
2018-08-07T22:12:09.910Z,10.20
2018-08-07T22:14:38.029Z,10.80
2018-08-07T22:17:06.107Z,10.80
2018-08-07T22:19:34.255Z,12.00
2018-08-07T22:22:02.436Z,11.10
2018-08-07T22:24:30.568Z,10.60
2018-08-07T22:26:58.619Z,10.80
2018-08-07T22:29:26.700Z,11.00
2018-08-07T22:31:54.781Z,11.10
2018-08-07T22:34:22.869Z,11.70
2018-08-07T22:36:50.910Z,11.40
2018-08-07T22:39:19.005Z,11.40
2018-08-07T22:41:47.092Z,11.10
2018-08-07T22:44:15.176Z,11.10
2018-08-07T22:46:43.268Z,11.10
2018-08-07T22:49:11.327Z,11.50
2018-08-07T22:51:39.375Z,11.90
2018-08-07T22:54:07.512Z,12.00
2018-08-07T22:56:35.569Z,12.20
2018-08-07T22:59:03.677Z,12.70
2018-08-07T23:01:31.833Z,13.30
2018-08-07T23:03:59.920Z,13.50
2018-08-07T23:06:28.004Z,13.10
2018-08-07T23:08:56.104Z,13.90
2018-08-07T23:11:24.221Z,13.90
2018-08-07T23:13:52.349Z,14.10
2018-08-07T23:16:20.447Z,14.30
2018-08-07T23:18:48.560Z,14.50
2018-08-07T23:21:16.651Z,14.40
2018-08-07T23:23:44.698Z,15.20
2018-08-07T23:26:12.739Z,15.80
2018-08-07T23:28:40.795Z,15.90
2018-08-07T23:31:08.874Z,15.90
2018-08-07T23:33:36.927Z,15.60
2018-08-07T23:36:04.967Z,15.50
2018-08-07T23:38:33.071Z,15.10
2018-08-07T23:41:01.140Z,14.90
2018-08-07T23:43:29.184Z,14.10
2018-08-07T23:45:57.267Z,14.60
2018-08-07T23:48:25.322Z,14.80
2018-08-07T23:50:53.380Z,14.70
2018-08-07T23:53:21.493Z,15.30
2018-08-07T23:55:49.555Z,16.00
2018-08-07T23:58:17.677Z,16.80
